createdAt,value
2023-02-11T00:01:16.222Z,46.95
2023-02-11T00:03:42.945Z,44.05
2023-02-11T00:06:11.485Z,45.90
2023-02-11T00:08:39.248Z,49.10
2023-02-11T00:11:06.115Z,49.03
2023-02-11T00:13:37.334Z,52.78
2023-02-11T00:16:10.590Z,45.10
2023-02-11T00:18:37.659Z,48.70
2023-02-11T00:21:17.839Z,48.42
2023-02-11T00:23:45.906Z,42.28
2023-02-11T00:26:20.527Z,49.40
2023-02-11T00:28:48.526Z,50.00
2023-02-11T00:31:16.805Z,45.35
2023-02-11T00:33:44.177Z,45.78
2023-02-11T00:36:23.367Z,44.40
2023-02-11T00:38:53.970Z,39.30
2023-02-11T00:41:21.333Z,38.05
2023-02-11T00:43:48.584Z,40.10
2023-02-11T00:46:17.741Z,38.03
2023-02-11T00:48:48.816Z,40.85
2023-02-11T00:51:15.560Z,34.90
2023-02-11T00:53:47.317Z,39.58
2023-02-11T00:56:13.949Z,40.17
2023-02-11T00:58:40.657Z,36.65
2023-02-11T01:01:07.844Z,36.63
2023-02-11T01:03:36.405Z,43.55
2023-02-11T01:06:03.237Z,42.03
2023-02-11T01:08:29.881Z,35.92
2023-02-11T01:10:59.523Z,39.35
2023-02-11T01:13:27.836Z,36.20
2023-02-11T01:15:56.183Z,35.78
2023-02-11T01:18:23.365Z,39.28
2023-02-11T01:20:52.529Z,38.72
2023-02-11T01:23:19.534Z,40.38
2023-02-11T01:25:46.674Z,32.40
2023-02-11T01:28:25.856Z,37.17
2023-02-11T01:30:53.538Z,37.20
2023-02-11T01:33:20.660Z,38.92
2023-02-11T01:35:47.986Z,53.08
2023-02-11T01:38:20.954Z,50.88
2023-02-11T01:40:53.738Z,46.15
2023-02-11T01:43:23.530Z,41.05
2023-02-11T01:46:00.786Z,56.15
2023-02-11T01:48:40.254Z,46.28
2023-02-11T01:51:14.159Z,48.40
2023-02-11T01:54:00.550Z,45.80
2023-02-11T01:56:48.530Z,47.65
2023-02-11T01:59:24.751Z,49.50
2023-02-11T02:02:01.861Z,47.88
2023-02-11T02:04:38.578Z,48.92
2023-02-11T02:07:26.653Z,43.65
2023-02-11T02:10:00.004Z,48.63
2023-02-11T02:12:28.905Z,46.60
2023-02-11T02:15:18.566Z,49.97
2023-02-11T02:17:57.377Z,48.38
2023-02-11T02:21:05.159Z,45.03
2023-02-11T02:24:03.526Z,47.50
2023-02-11T02:26:57.464Z,36.88
2023-02-11T02:29:49.874Z,39.55
2023-02-11T02:32:35.186Z,32.22
2023-02-11T02:35:19.881Z,36.20
2023-02-11T02:38:09.886Z,34.22
2023-02-11T02:40:50.668Z,37.88
2023-02-11T02:43:18.355Z,29.73
2023-02-11T02:45:45.072Z,31.20
2023-02-11T02:48:32.413Z,27.73
2023-02-11T02:51:04.815Z,29.27
2023-02-11T02:53:40.362Z,28.35
2023-02-11T02:56:13.637Z,28.77
2023-02-11T02:58:53.855Z,32.45
2023-02-11T03:01:39.645Z,27.92
2023-02-11T03:04:24.150Z,33.33
2023-02-11T03:07:03.464Z,28.52
2023-02-11T03:09:40.300Z,33.10
2023-02-11T03:12:14.236Z,31.98
2023-02-11T03:14:41.806Z,28.63
2023-02-11T03:17:10.276Z,28.55
2023-02-11T03:19:41.022Z,28.17
2023-02-11T03:22:17.138Z,26.15
2023-02-11T03:24:45.028Z,31.33
2023-02-11T03:27:26.773Z,31.00
2023-02-11T03:30:10.142Z,28.63
2023-02-11T03:32:38.853Z,25.45
2023-02-11T03:35:20.751Z,30.85
2023-02-11T03:38:14.126Z,28.88
2023-02-11T03:40:42.932Z,29.33
2023-02-11T03:43:22.607Z,26.58
2023-02-11T03:45:55.235Z,28.10
2023-02-11T03:48:38.609Z,26.08
2023-02-11T03:51:09.115Z,29.70
2023-02-11T03:53:38.534Z,28.35
2023-02-11T03:56:09.929Z,28.13
2023-02-11T03:58:36.574Z,31.23
2023-02-11T04:01:05.031Z,30.35
2023-02-11T04:03:33.052Z,34.70
2023-02-11T04:05:59.760Z,35.88
2023-02-11T04:08:26.417Z,35.50
2023-02-11T04:10:53.046Z,32.67
2023-02-11T04:13:25.070Z,35.47
2023-02-11T04:15:54.597Z,32.85
2023-02-11T04:18:21.525Z,35.75
2023-02-11T04:20:50.172Z,36.10
2023-02-11T04:23:19.427Z,33.67
2023-02-11T04:25:46.077Z,35.53
2023-02-11T04:28:12.831Z,34.53
2023-02-11T04:30:41.787Z,33.70
2023-02-11T04:33:08.460Z,30.08
2023-02-11T04:35:35.124Z,31.65
2023-02-11T04:38:06.653Z,34.35
2023-02-11T04:40:35.590Z,30.55
2023-02-11T04:43:02.203Z,33.65
2023-02-11T04:45:28.848Z,31.67
2023-02-11T04:47:58.106Z,33.88
2023-02-11T04:50:24.871Z,33.47
2023-02-11T04:52:51.476Z,29.45
2023-02-11T04:55:18.315Z,30.10
2023-02-11T04:57:47.228Z,26.38
2023-02-11T05:00:16.740Z,29.13
2023-02-11T05:02:43.512Z,29.65
2023-02-11T05:05:10.159Z,38.13
2023-02-11T05:07:36.768Z,45.50
2023-02-11T05:10:05.851Z,48.65
2023-02-11T05:12:32.495Z,49.50
2023-02-11T05:14:59.136Z,55.80
2023-02-11T05:17:25.805Z,47.67
2023-02-11T05:19:52.436Z,43.28
2023-02-11T05:22:19.673Z,43.78
2023-02-11T05:24:49.121Z,40.55
2023-02-11T05:27:18.178Z,45.10
2023-02-11T05:29:44.824Z,41.03
2023-02-11T05:32:12.116Z,42.30
2023-02-11T05:34:38.746Z,37.83
2023-02-11T05:37:10.139Z,34.03
2023-02-11T05:39:36.782Z,37.13
2023-02-11T05:42:06.021Z,33.33
2023-02-11T05:44:35.294Z,34.35
2023-02-11T05:47:01.945Z,33.03
2023-02-11T05:49:28.675Z,34.78
2023-02-11T05:51:55.385Z,33.38
2023-02-11T05:54:22.180Z,34.42
2023-02-11T05:56:51.099Z,29.60
2023-02-11T05:59:20.361Z,38.38
2023-02-11T06:01:46.992Z,36.28
2023-02-11T06:04:13.636Z,31.05
2023-02-11T06:06:40.298Z,32.67
2023-02-11T06:09:06.964Z,38.65
2023-02-11T06:11:36.055Z,35.47
2023-02-11T06:14:02.716Z,30.98
2023-02-11T06:16:29.442Z,37.45
2023-02-11T06:18:56.143Z,35.13
2023-02-11T06:21:25.066Z,35.42
2023-02-11T06:23:53.121Z,36.88
2023-02-11T06:26:25.612Z,38.55
2023-02-11T06:28:54.430Z,44.92
2023-02-11T06:31:21.197Z,41.38
2023-02-11T06:33:49.797Z,36.83
2023-02-11T06:36:22.866Z,42.65
2023-02-11T06:38:50.174Z,40.20
2023-02-11T06:41:21.642Z,50.70
2023-02-11T06:43:51.435Z,43.92
2023-02-11T06:46:22.546Z,41.13
2023-02-11T06:48:51.510Z,39.45
2023-02-11T06:51:18.351Z,50.78
2023-02-11T06:53:46.467Z,42.03
2023-02-11T06:56:19.489Z,48.35
2023-02-11T06:58:47.103Z,42.55
2023-02-11T07:01:16.051Z,41.20
2023-02-11T07:03:48.836Z,44.90
2023-02-11T07:06:18.259Z,42.73
2023-02-11T07:08:45.959Z,39.65
2023-02-11T07:11:40.144Z,41.08
2023-02-11T07:14:08.536Z,40.33
2023-02-11T07:16:36.350Z,39.97
2023-02-11T07:19:03.175Z,41.22
2023-02-11T07:21:32.084Z,44.60
2023-02-11T07:23:58.821Z,37.13
2023-02-11T07:26:30.712Z,38.75
2023-02-11T07:28:59.902Z,35.97
2023-02-11T07:31:29.426Z,44.03
2023-02-11T07:33:59.732Z,43.30
2023-02-11T07:36:27.642Z,43.97
2023-02-11T07:38:54.472Z,45.35
2023-02-11T07:41:23.749Z,38.20
2023-02-11T07:43:50.786Z,37.58
2023-02-11T07:46:26.264Z,34.28
2023-02-11T07:48:53.452Z,38.13
2023-02-11T07:51:23.497Z,37.00
2023-02-11T07:53:50.772Z,41.17
2023-02-11T07:56:21.311Z,35.17
2023-02-11T07:58:48.266Z,37.78
2023-02-11T08:01:19.383Z,42.00
2023-02-11T08:03:46.127Z,39.42
2023-02-11T08:06:16.054Z,38.15
2023-02-11T08:08:43.281Z,37.90
2023-02-11T08:11:14.341Z,43.35
2023-02-11T08:13:43.505Z,39.30
2023-02-11T08:16:22.732Z,38.40
2023-02-11T08:18:50.588Z,36.83
2023-02-11T08:21:18.272Z,35.20
2023-02-11T08:23:45.686Z,34.15
2023-02-11T08:26:16.002Z,38.67
2023-02-11T08:28:44.259Z,36.20
2023-02-11T08:31:18.144Z,29.88
2023-02-11T08:33:45.314Z,30.42
2023-02-11T08:36:14.933Z,27.30
2023-02-11T08:38:42.039Z,35.30
2023-02-11T08:41:11.474Z,29.35
2023-02-11T08:43:41.585Z,34.47
2023-02-11T08:46:09.920Z,23.95
2023-02-11T08:48:39.235Z,26.55
2023-02-11T08:51:17.046Z,27.02
2023-02-11T08:53:46.531Z,23.45
2023-02-11T08:56:15.294Z,22.73
2023-02-11T08:58:42.168Z,23.38
2023-02-11T09:01:13.633Z,23.23
2023-02-11T09:03:40.464Z,26.02
2023-02-11T09:06:10.956Z,27.45
2023-02-11T09:08:39.922Z,21.27
2023-02-11T09:11:07.530Z,25.88
2023-02-11T09:13:34.413Z,28.25
2023-02-11T09:16:04.909Z,20.73
2023-02-11T09:18:32.538Z,29.25
2023-02-11T09:21:07.952Z,24.60
2023-02-11T09:23:37.555Z,26.95
2023-02-11T09:26:09.669Z,27.67
2023-02-11T09:28:38.896Z,27.70
2023-02-11T09:31:11.575Z,24.92
2023-02-11T09:33:42.136Z,29.17
2023-02-11T09:36:09.177Z,23.83
2023-02-11T09:38:35.821Z,23.15
2023-02-11T09:41:07.539Z,22.08
2023-02-11T09:43:46.421Z,21.48
2023-02-11T09:46:17.467Z,29.17
2023-02-11T09:48:46.534Z,20.77
2023-02-11T09:51:23.872Z,28.52
2023-02-11T09:54:01.704Z,25.02
2023-02-11T09:56:29.297Z,23.85
2023-02-11T09:58:55.935Z,25.33
2023-02-11T10:01:56.395Z,25.85
2023-02-11T10:04:50.685Z,30.00
2023-02-11T10:07:38.179Z,25.38
2023-02-11T10:10:13.830Z,25.60
2023-02-11T10:13:08.646Z,27.25
2023-02-11T10:15:53.922Z,28.77
2023-02-11T10:18:42.144Z,26.27
2023-02-11T10:21:47.701Z,25.98
2023-02-11T10:24:16.517Z,26.83
2023-02-11T10:26:47.693Z,26.17
2023-02-11T10:29:40.356Z,27.20
2023-02-11T10:32:29.770Z,22.38
2023-02-11T10:35:01.699Z,18.27
2023-02-11T10:37:28.584Z,18.80
2023-02-11T10:39:55.283Z,20.00
2023-02-11T10:42:24.864Z,17.85
2023-02-11T10:45:03.612Z,19.38
2023-02-11T10:47:36.686Z,17.90
2023-02-11T10:50:28.265Z,18.42
2023-02-11T10:53:21.575Z,19.60
2023-02-11T10:55:57.196Z,20.70
2023-02-11T10:58:44.686Z,30.85
2023-02-11T11:01:24.206Z,18.45
2023-02-11T11:03:52.874Z,21.73
2023-02-11T11:06:33.213Z,19.48
2023-02-11T11:09:00.209Z,21.50
2023-02-11T11:11:27.411Z,21.75
2023-02-11T11:13:58.144Z,20.13
2023-02-11T11:16:35.570Z,18.27
2023-02-11T11:19:08.201Z,21.10
2023-02-11T11:21:51.210Z,21.77
2023-02-11T11:24:40.013Z,21.08
2023-02-11T11:27:07.012Z,22.00
2023-02-11T11:29:40.472Z,22.33
2023-02-11T11:32:21.528Z,20.23
2023-02-11T11:35:02.605Z,19.20
2023-02-11T11:37:32.466Z,21.30
2023-02-11T11:40:00.762Z,17.75
2023-02-11T11:42:33.173Z,19.50
2023-02-11T11:45:20.046Z,20.15
2023-02-11T11:47:54.598Z,20.60
2023-02-11T11:50:27.711Z,21.20
2023-02-11T11:53:04.391Z,17.80
2023-02-11T11:55:42.317Z,16.88
2023-02-11T11:58:21.341Z,16.80
2023-02-11T12:01:02.199Z,17.77
2023-02-11T12:03:46.921Z,17.40
2023-02-11T12:06:56.006Z,17.83
2023-02-11T12:09:25.768Z,15.73
2023-02-11T12:12:19.090Z,16.60
2023-02-11T12:15:23.943Z,18.42
2023-02-11T12:18:21.787Z,17.95
2023-02-11T12:21:25.011Z,16.30
2023-02-11T12:24:18.937Z,15.10
2023-02-11T12:27:10.575Z,16.08
2023-02-11T12:29:49.250Z,19.20
2023-02-11T12:32:33.938Z,18.40
2023-02-11T12:35:18.906Z,17.98
2023-02-11T12:37:48.373Z,19.05
2023-02-11T12:40:34.811Z,18.92
2023-02-11T12:43:16.459Z,18.38
2023-02-11T12:46:09.266Z,19.63
2023-02-11T12:49:00.183Z,17.85
2023-02-11T12:51:32.393Z,18.08
2023-02-11T12:54:20.023Z,16.08
2023-02-11T12:56:50.334Z,18.05
2023-02-11T12:59:43.240Z,19.40
2023-02-11T13:02:23.197Z,20.25
2023-02-11T13:04:56.186Z,21.25
2023-02-11T13:07:37.654Z,18.83
2023-02-11T13:10:25.352Z,19.17
2023-02-11T13:13:12.994Z,19.77
2023-02-11T13:15:41.072Z,17.38
2023-02-11T13:18:19.431Z,16.38
2023-02-11T13:21:16.436Z,19.67
2023-02-11T13:24:02.801Z,16.73
2023-02-11T13:26:37.335Z,20.42
2023-02-11T13:29:27.833Z,16.83
2023-02-11T13:32:06.988Z,16.38
2023-02-11T13:34:45.646Z,14.48
2023-02-11T13:37:36.649Z,17.58
2023-02-11T13:40:36.716Z,16.45
2023-02-11T13:43:20.110Z,16.02
2023-02-11T13:45:51.604Z,15.15
2023-02-11T13:48:24.781Z,18.42
2023-02-11T13:50:55.693Z,16.27
2023-02-11T13:53:23.691Z,21.92
2023-02-11T13:55:56.191Z,16.50
2023-02-11T13:58:28.808Z,19.27
2023-02-11T14:00:55.883Z,21.20
2023-02-11T14:03:44.180Z,18.45
2023-02-11T14:06:34.735Z,15.18
2023-02-11T14:09:12.553Z,17.83
2023-02-11T14:11:59.674Z,17.98
2023-02-11T14:14:30.096Z,20.33
2023-02-11T14:17:02.610Z,25.48
2023-02-11T14:19:33.608Z,17.83
2023-02-11T14:22:28.322Z,15.82
2023-02-11T14:25:01.038Z,21.52
2023-02-11T14:27:32.246Z,17.08
2023-02-11T14:30:14.807Z,17.73
2023-02-11T14:33:18.100Z,16.45
2023-02-11T14:36:17.188Z,20.65
2023-02-11T14:38:49.674Z,17.02
2023-02-11T14:41:25.371Z,18.75
2023-02-11T14:44:07.821Z,16.60
2023-02-11T14:46:35.069Z,16.40
2023-02-11T14:49:07.818Z,21.13
2023-02-11T14:51:38.623Z,16.35
2023-02-11T14:54:23.405Z,16.65
2023-02-11T14:57:17.340Z,18.98
2023-02-11T15:00:02.629Z,17.58
2023-02-11T15:02:36.931Z,23.67
2023-02-11T15:05:26.188Z,18.73
2023-02-11T15:08:04.793Z,19.10
2023-02-11T15:10:45.962Z,18.95
2023-02-11T15:13:27.130Z,21.35
2023-02-11T15:15:58.192Z,20.88
2023-02-11T15:18:35.291Z,21.52
2023-02-11T15:21:02.098Z,19.20
2023-02-11T15:23:31.290Z,24.88
2023-02-11T15:26:03.054Z,22.02
2023-02-11T15:28:33.084Z,22.58
2023-02-11T15:31:04.402Z,22.58
2023-02-11T15:33:32.633Z,20.63
2023-02-11T15:36:01.675Z,24.40
2023-02-11T15:38:31.446Z,23.05
2023-02-11T15:41:07.344Z,21.73
2023-02-11T15:43:53.070Z,26.50
2023-02-11T15:46:22.975Z,27.92
2023-02-11T15:48:54.745Z,28.17
2023-02-11T15:51:28.688Z,27.83
2023-02-11T15:54:00.241Z,33.80
2023-02-11T15:56:30.451Z,28.80
2023-02-11T15:59:00.331Z,25.08
2023-02-11T16:01:36.786Z,33.10
2023-02-11T16:04:08.774Z,27.02
2023-02-11T16:06:40.483Z,30.35
2023-02-11T16:09:12.499Z,29.98
2023-02-11T16:11:48.332Z,31.35
2023-02-11T16:14:24.111Z,23.88
2023-02-11T16:16:53.929Z,39.08
2023-02-11T16:19:25.943Z,29.83
2023-02-11T16:21:54.853Z,28.15
2023-02-11T16:24:29.561Z,27.90
2023-02-11T16:27:05.599Z,31.50
2023-02-11T16:29:36.227Z,31.55
2023-02-11T16:32:24.676Z,26.20
2023-02-11T16:34:52.805Z,27.85
2023-02-11T16:37:21.996Z,32.53
2023-02-11T16:39:54.058Z,25.50
2023-02-11T16:42:20.706Z,31.58
2023-02-11T16:44:47.332Z,27.70
2023-02-11T16:47:25.768Z,33.15
2023-02-11T16:49:52.786Z,32.20
2023-02-11T16:52:23.615Z,30.58
2023-02-11T16:54:50.635Z,28.02
2023-02-11T16:57:24.557Z,27.60
2023-02-11T17:02:31.126Z,25.30
2023-02-11T17:05:09.319Z,16.02
2023-02-11T17:07:36.064Z,16.95
2023-02-11T17:10:02.882Z,18.45
2023-02-11T17:12:29.603Z,19.08
2023-02-11T17:14:56.418Z,15.23
2023-02-11T17:17:25.575Z,18.08
2023-02-11T17:19:52.279Z,18.83
2023-02-11T17:22:19.063Z,17.33
2023-02-11T17:24:45.848Z,15.40
2023-02-11T17:27:15.342Z,18.75
2023-02-11T17:29:42.069Z,17.23
2023-02-11T17:32:08.875Z,19.50
2023-02-11T17:34:38.080Z,16.75
2023-02-11T17:37:09.119Z,20.42
2023-02-11T17:39:36.887Z,15.70
2023-02-11T17:42:07.276Z,19.80
2023-02-11T17:44:34.182Z,25.92
2023-02-11T17:47:03.294Z,26.02
2023-02-11T17:49:34.762Z,24.05
2023-02-11T17:52:01.893Z,21.30
2023-02-11T17:54:28.530Z,19.30
2023-02-11T17:56:58.189Z,20.48
2023-02-11T17:59:31.703Z,22.75
2023-02-11T18:01:58.376Z,22.02
2023-02-11T18:04:25.044Z,27.30
2023-02-11T18:06:53.485Z,24.70
2023-02-11T18:09:20.372Z,28.17
2023-02-11T18:11:50.498Z,26.02
2023-02-11T18:14:17.248Z,23.67
2023-02-11T18:16:45.114Z,27.35
2023-02-11T18:19:15.047Z,30.50
2023-02-11T18:21:43.962Z,31.92
2023-02-11T18:24:10.720Z,31.25
2023-02-11T18:26:37.452Z,26.17
2023-02-11T18:29:06.134Z,31.05
2023-02-11T18:31:35.889Z,29.60
2023-02-11T18:34:05.477Z,31.83
2023-02-11T18:36:32.204Z,26.05
2023-02-11T18:39:00.580Z,29.42
2023-02-11T18:41:27.438Z,29.60
2023-02-11T18:43:57.030Z,32.25
2023-02-11T18:46:24.094Z,27.52
2023-02-11T18:48:54.987Z,24.63
2023-02-11T18:51:22.740Z,28.15
2023-02-11T18:53:49.381Z,28.10
2023-02-11T18:56:19.253Z,33.45
2023-02-11T18:58:46.470Z,31.23
2023-02-11T19:01:18.926Z,25.55
2023-02-11T19:03:45.930Z,27.52
2023-02-11T19:06:21.604Z,28.80
2023-02-11T19:08:48.467Z,27.77
2023-02-11T19:11:17.806Z,29.38
2023-02-11T19:13:44.794Z,29.33
2023-02-11T19:16:13.871Z,34.38
2023-02-11T19:18:40.674Z,31.02
2023-02-11T19:21:09.930Z,26.33
2023-02-11T19:23:36.736Z,33.80
2023-02-11T19:26:04.550Z,30.15
2023-02-11T19:28:32.699Z,34.85
2023-02-11T19:31:11.583Z,33.55
2023-02-11T19:33:38.305Z,33.42
2023-02-11T19:36:09.637Z,33.33
2023-02-11T19:38:38.760Z,36.25
2023-02-11T19:41:05.519Z,36.88
2023-02-11T19:43:34.589Z,36.63
2023-02-11T19:46:04.876Z,39.95
2023-02-11T19:48:31.731Z,33.25
2023-02-11T19:50:58.821Z,30.13
2023-02-11T19:53:27.849Z,30.33
2023-02-11T19:55:56.720Z,31.00
2023-02-11T19:58:23.355Z,33.50
2023-02-11T20:00:52.457Z,34.65
2023-02-11T20:03:19.358Z,33.53
2023-02-11T20:05:48.688Z,37.47
2023-02-11T20:08:17.030Z,32.80
2023-02-11T20:10:43.858Z,35.38
2023-02-11T20:13:13.017Z,34.70
2023-02-11T20:15:39.768Z,33.05
2023-02-11T20:18:11.198Z,36.72
2023-02-11T20:20:38.563Z,37.08
2023-02-11T20:23:05.283Z,31.83
2023-02-11T20:25:57.113Z,36.17
2023-02-11T20:28:23.868Z,33.30
2023-02-11T20:31:00.453Z,36.05
2023-02-11T20:33:31.026Z,37.70
2023-02-11T20:35:59.826Z,35.55
2023-02-11T20:38:28.906Z,40.20
2023-02-11T20:41:02.748Z,35.55
2023-02-11T20:45:56.025Z,36.70
2023-02-11T20:48:25.742Z,32.17
2023-02-11T20:50:52.416Z,36.88
2023-02-11T20:53:19.225Z,36.15
2023-02-11T20:55:46.169Z,37.20
2023-02-11T20:58:12.820Z,32.40
2023-02-11T21:00:44.173Z,34.60
2023-02-11T21:03:10.828Z,35.75
2023-02-11T21:05:37.488Z,34.45
2023-02-11T21:08:04.804Z,36.25
2023-02-11T21:10:31.560Z,35.58
2023-02-11T21:13:02.955Z,32.88
2023-02-11T21:15:30.543Z,37.15
2023-02-11T21:17:57.253Z,42.03
2023-02-11T21:20:26.540Z,38.28
2023-02-11T21:22:56.038Z,36.50
2023-02-11T21:25:22.686Z,33.38
2023-02-11T21:27:49.448Z,35.55
2023-02-11T21:30:17.466Z,33.40
2023-02-11T21:32:44.336Z,39.65
2023-02-11T21:35:11.120Z,30.90
2023-02-11T21:37:40.383Z,35.13
2023-02-11T21:40:11.235Z,39.92
2023-02-11T21:42:37.924Z,32.63
2023-02-11T21:45:04.856Z,34.03
2023-02-11T21:47:31.735Z,33.97
2023-02-11T21:49:58.433Z,32.75
2023-02-11T21:52:25.162Z,30.58
2023-02-11T21:54:54.364Z,32.30
2023-02-11T21:57:21.105Z,33.00
2023-02-11T21:59:47.725Z,27.55
2023-02-11T22:02:19.121Z,33.78
2023-02-11T22:04:47.943Z,28.30
2023-02-11T22:07:14.639Z,29.05
2023-02-11T22:09:41.434Z,31.83
2023-02-11T22:12:11.229Z,31.15
2023-02-11T22:14:38.795Z,31.25
2023-02-11T22:17:05.767Z,32.63
2023-02-11T22:19:35.053Z,35.38
2023-02-11T22:22:02.077Z,31.25
2023-02-11T22:24:29.515Z,34.28
2023-02-11T22:27:00.810Z,33.65
2023-02-11T22:29:27.613Z,32.33
2023-02-11T22:31:54.542Z,36.33
2023-02-11T22:34:21.274Z,33.85
2023-02-11T22:36:48.009Z,30.27
2023-02-11T22:39:16.293Z,32.20
2023-02-11T22:41:44.615Z,29.23
2023-02-11T22:44:12.204Z,30.67
2023-02-11T22:46:41.157Z,32.90
2023-02-11T22:49:07.813Z,27.98
2023-02-11T22:51:34.690Z,30.40
2023-02-11T22:54:03.817Z,30.33
2023-02-11T22:56:32.248Z,31.05
2023-02-11T22:59:04.363Z,29.77
2023-02-11T23:01:31.756Z,28.90
2023-02-11T23:04:00.686Z,29.50
2023-02-11T23:06:27.496Z,27.00
2023-02-11T23:08:54.276Z,31.55
2023-02-11T23:11:26.736Z,28.98
2023-02-11T23:13:54.006Z,29.33
2023-02-11T23:16:27.695Z,25.63
2023-02-11T23:18:54.920Z,22.30
2023-02-11T23:21:28.442Z,23.63
2023-02-11T23:24:01.122Z,26.25
2023-02-11T23:26:28.665Z,33.00
2023-02-11T23:28:55.980Z,21.48
2023-02-11T23:31:27.355Z,26.00
2023-02-11T23:33:54.580Z,22.85
2023-02-11T23:36:22.001Z,21.33
2023-02-11T23:38:49.126Z,20.60
2023-02-11T23:41:16.938Z,21.60
2023-02-11T23:43:46.480Z,25.77
2023-02-11T23:46:13.246Z,26.55
2023-02-11T23:48:42.062Z,24.13
2023-02-11T23:51:14.243Z,24.33
2023-02-11T23:53:41.167Z,23.52
2023-02-11T23:56:10.319Z,29.92
2023-02-11T23:58:37.417Z,24.33
